sensor_id;sensor_type;location;lat;lon;timestamp;P1;durP1;ratioP1;P2;durP2;ratioP2
20014;SDS011;61787;42.022;23.078;2023-04-06T00:00:13;13.20;;;9.67;;
20014;SDS011;61787;42.022;23.078;2023-04-06T00:01:15;12.57;;;9.23;;
20014;SDS011;61787;42.022;23.078;2023-04-06T00:02:17;12.67;;;9.47;;
20014;SDS011;61787;42.022;23.078;2023-04-06T00:03:19;12.87;;;9.83;;
20014;SDS011;61787;42.022;23.078;2023-04-06T00:04:21;13.73;;;9.37;;
20014;SDS011;61787;42.022;23.078;2023-04-06T00:05:22;15.17;;;9.47;;
20014;SDS011;61787;42.022;23.078;2023-04-06T00:06:24;12.07;;;9.50;;
20014;SDS011;61787;42.022;23.078;2023-04-06T00:07:25;12.67;;;9.73;;
20014;SDS011;61787;42.022;23.078;2023-04-06T00:08:29;13.60;;;9.33;;
20014;SDS011;61787;42.022;23.078;2023-04-06T00:09:31;11.80;;;9.87;;
20014;SDS011;61787;42.022;23.078;2023-04-06T00:10:32;14.00;;;9.13;;
20014;SDS011;61787;42.022;23.078;2023-04-06T00:11:34;12.67;;;10.20;;
20014;SDS011;61787;42.022;23.078;2023-04-06T00:12:36;12.90;;;9.87;;
20014;SDS011;61787;42.022;23.078;2023-04-06T00:13:37;12.43;;;9.70;;
20014;SDS011;61787;42.022;23.078;2023-04-06T00:14:39;11.73;;;9.33;;
20014;SDS011;61787;42.022;23.078;2023-04-06T00:15:41;11.60;;;8.90;;
20014;SDS011;61787;42.022;23.078;2023-04-06T00:16:43;13.37;;;9.33;;
20014;SDS011;61787;42.022;23.078;2023-04-06T00:17:45;11.33;;;9.40;;
20014;SDS011;61787;42.022;23.078;2023-04-06T00:18:46;13.50;;;10.10;;
20014;SDS011;61787;42.022;23.078;2023-04-06T00:19:48;12.07;;;9.30;;
20014;SDS011;61787;42.022;23.078;2023-04-06T00:20:50;11.73;;;9.40;;
20014;SDS011;61787;42.022;23.078;2023-04-06T00:21:52;11.57;;;8.97;;
20014;SDS011;61787;42.022;23.078;2023-04-06T00:22:54;11.93;;;9.83;;
20014;SDS011;61787;42.022;23.078;2023-04-06T00:23:56;11.93;;;9.73;;
20014;SDS011;61787;42.022;23.078;2023-04-06T00:24:57;12.83;;;10.03;;
20014;SDS011;61787;42.022;23.078;2023-04-06T00:25:59;11.73;;;9.47;;
20014;SDS011;61787;42.022;23.078;2023-04-06T00:27:01;11.73;;;8.90;;
20014;SDS011;61787;42.022;23.078;2023-04-06T00:28:03;11.87;;;9.47;;
20014;SDS011;61787;42.022;23.078;2023-04-06T00:29:04;11.30;;;8.93;;
20014;SDS011;61787;42.022;23.078;2023-04-06T00:30:07;13.90;;;9.47;;
20014;SDS011;61787;42.022;23.078;2023-04-06T00:31:09;12.77;;;8.93;;
20014;SDS011;61787;42.022;23.078;2023-04-06T00:32:11;12.70;;;9.20;;
20014;SDS011;61787;42.022;23.078;2023-04-06T00:33:13;11.00;;;8.60;;
20014;SDS011;61787;42.022;23.078;2023-04-06T00:34:14;11.33;;;9.00;;
20014;SDS011;61787;42.022;23.078;2023-04-06T00:35:17;13.40;;;9.80;;
20014;SDS011;61787;42.022;23.078;2023-04-06T00:36:18;12.60;;;9.57;;
20014;SDS011;61787;42.022;23.078;2023-04-06T00:37:20;12.93;;;9.53;;
20014;SDS011;61787;42.022;23.078;2023-04-06T00:38:22;11.53;;;8.87;;
20014;SDS011;61787;42.022;23.078;2023-04-06T00:39:23;11.20;;;9.50;;
20014;SDS011;61787;42.022;23.078;2023-04-06T00:40:25;10.73;;;8.40;;
20014;SDS011;61787;42.022;23.078;2023-04-06T00:41:29;11.17;;;8.63;;
20014;SDS011;61787;42.022;23.078;2023-04-06T00:42:31;11.53;;;8.83;;
20014;SDS011;61787;42.022;23.078;2023-04-06T00:43:33;12.37;;;9.13;;
20014;SDS011;61787;42.022;23.078;2023-04-06T00:44:34;11.13;;;9.20;;
20014;SDS011;61787;42.022;23.078;2023-04-06T00:45:36;11.33;;;8.70;;
20014;SDS011;61787;42.022;23.078;2023-04-06T00:46:39;10.50;;;8.57;;
20014;SDS011;61787;42.022;23.078;2023-04-06T00:47:41;12.10;;;9.00;;
20014;SDS011;61787;42.022;23.078;2023-04-06T00:48:43;10.80;;;8.50;;
20014;SDS011;61787;42.022;23.078;2023-04-06T00:49:44;10.07;;;8.83;;
20014;SDS011;61787;42.022;23.078;2023-04-06T00:50:46;10.97;;;8.70;;
20014;SDS011;61787;42.022;23.078;2023-04-06T00:51:48;11.97;;;8.70;;
20014;SDS011;61787;42.022;23.078;2023-04-06T00:52:49;12.60;;;9.60;;
20014;SDS011;61787;42.022;23.078;2023-04-06T00:53:51;12.00;;;8.93;;
20014;SDS011;61787;42.022;23.078;2023-04-06T00:54:53;9.83;;;8.63;;
20014;SDS011;61787;42.022;23.078;2023-04-06T00:55:55;12.33;;;9.27;;
20014;SDS011;61787;42.022;23.078;2023-04-06T00:56:56;11.07;;;9.10;;
20014;SDS011;61787;42.022;23.078;2023-04-06T00:57:58;11.53;;;9.00;;
20014;SDS011;61787;42.022;23.078;2023-04-06T00:59:02;10.90;;;8.47;;
20014;SDS011;61787;42.022;23.078;2023-04-06T01:00:04;10.33;;;8.50;;
20014;SDS011;61787;42.022;23.078;2023-04-06T01:01:06;10.07;;;8.57;;
20014;SDS011;61787;42.022;23.078;2023-04-06T01:02:08;10.23;;;7.97;;
20014;SDS011;61787;42.022;23.078;2023-04-06T01:03:10;10.13;;;8.30;;
20014;SDS011;61787;42.022;23.078;2023-04-06T01:04:11;11.37;;;9.20;;
20014;SDS011;61787;42.022;23.078;2023-04-06T01:05:13;10.17;;;8.60;;
20014;SDS011;61787;42.022;23.078;2023-04-06T01:06:15;8.70;;;7.53;;
20014;SDS011;61787;42.022;23.078;2023-04-06T01:07:17;10.03;;;7.80;;
20014;SDS011;61787;42.022;23.078;2023-04-06T01:08:19;9.13;;;7.73;;
20014;SDS011;61787;42.022;23.078;2023-04-06T01:09:21;9.37;;;8.07;;
20014;SDS011;61787;42.022;23.078;2023-04-06T01:10:26;10.30;;;8.33;;
20014;SDS011;61787;42.022;23.078;2023-04-06T01:11:29;10.20;;;8.27;;
20014;SDS011;61787;42.022;23.078;2023-04-06T01:12:31;9.60;;;8.40;;
20014;SDS011;61787;42.022;23.078;2023-04-06T01:13:32;10.50;;;8.00;;
20014;SDS011;61787;42.022;23.078;2023-04-06T01:14:34;10.40;;;8.70;;
20014;SDS011;61787;42.022;23.078;2023-04-06T01:15:36;10.53;;;8.60;;
20014;SDS011;61787;42.022;23.078;2023-04-06T01:16:40;10.87;;;7.73;;
20014;SDS011;61787;42.022;23.078;2023-04-06T01:17:42;9.80;;;8.57;;
20014;SDS011;61787;42.022;23.078;2023-04-06T01:18:44;9.20;;;7.73;;
20014;SDS011;61787;42.022;23.078;2023-04-06T01:19:46;9.47;;;7.97;;
20014;SDS011;61787;42.022;23.078;2023-04-06T01:20:50;9.67;;;7.60;;
20014;SDS011;61787;42.022;23.078;2023-04-06T01:21:51;9.20;;;7.83;;
20014;SDS011;61787;42.022;23.078;2023-04-06T01:22:54;8.70;;;7.70;;
20014;SDS011;61787;42.022;23.078;2023-04-06T01:23:56;10.13;;;8.77;;
20014;SDS011;61787;42.022;23.078;2023-04-06T01:24:57;10.50;;;7.87;;
20014;SDS011;61787;42.022;23.078;2023-04-06T01:25:59;9.77;;;7.97;;
20014;SDS011;61787;42.022;23.078;2023-04-06T01:27:00;9.87;;;8.43;;
20014;SDS011;61787;42.022;23.078;2023-04-06T01:28:02;11.07;;;8.73;;
20014;SDS011;61787;42.022;23.078;2023-04-06T01:29:04;9.23;;;8.07;;
20014;SDS011;61787;42.022;23.078;2023-04-06T01:30:06;10.47;;;8.60;;
20014;SDS011;61787;42.022;23.078;2023-04-06T01:31:09;9.93;;;8.13;;
20014;SDS011;61787;42.022;23.078;2023-04-06T01:32:10;9.77;;;8.20;;
20014;SDS011;61787;42.022;23.078;2023-04-06T01:33:12;11.87;;;8.73;;
20014;SDS011;61787;42.022;23.078;2023-04-06T01:34:14;9.20;;;8.00;;
20014;SDS011;61787;42.022;23.078;2023-04-06T01:35:17;9.97;;;8.40;;
20014;SDS011;61787;42.022;23.078;2023-04-06T01:36:20;9.53;;;8.07;;
20014;SDS011;61787;42.022;23.078;2023-04-06T01:37:21;10.00;;;8.30;;
20014;SDS011;61787;42.022;23.078;2023-04-06T01:38:23;10.57;;;8.83;;
20014;SDS011;61787;42.022;23.078;2023-04-06T01:39:25;11.30;;;8.40;;
20014;SDS011;61787;42.022;23.078;2023-04-06T01:40:27;9.47;;;7.97;;
20014;SDS011;61787;42.022;23.078;2023-04-06T01:41:28;9.13;;;7.80;;
20014;SDS011;61787;42.022;23.078;2023-04-06T01:42:30;9.47;;;7.90;;
20014;SDS011;61787;42.022;23.078;2023-04-06T01:43:32;10.20;;;8.40;;
20014;SDS011;61787;42.022;23.078;2023-04-06T01:44:33;10.70;;;8.23;;
20014;SDS011;61787;42.022;23.078;2023-04-06T01:45:35;10.27;;;8.47;;
20014;SDS011;61787;42.022;23.078;2023-04-06T01:46:37;9.90;;;8.17;;
20014;SDS011;61787;42.022;23.078;2023-04-06T01:47:38;11.67;;;8.53;;
20014;SDS011;61787;42.022;23.078;2023-04-06T01:48:40;9.60;;;8.23;;
20014;SDS011;61787;42.022;23.078;2023-04-06T01:49:42;10.60;;;8.43;;
20014;SDS011;61787;42.022;23.078;2023-04-06T01:50:43;10.17;;;8.83;;
20014;SDS011;61787;42.022;23.078;2023-04-06T01:51:45;10.90;;;8.63;;
20014;SDS011;61787;42.022;23.078;2023-04-06T01:52:46;11.90;;;8.70;;
20014;SDS011;61787;42.022;23.078;2023-04-06T01:53:48;10.87;;;8.57;;
20014;SDS011;61787;42.022;23.078;2023-04-06T01:54:50;9.60;;;8.40;;
20014;SDS011;61787;42.022;23.078;2023-04-06T01:55:52;9.67;;;8.50;;
20014;SDS011;61787;42.022;23.078;2023-04-06T01:56:53;9.70;;;8.53;;
20014;SDS011;61787;42.022;23.078;2023-04-06T01:57:55;12.87;;;9.30;;
20014;SDS011;61787;42.022;23.078;2023-04-06T01:58:57;10.43;;;8.37;;
20014;SDS011;61787;42.022;23.078;2023-04-06T01:59:58;9.87;;;8.63;;
20014;SDS011;61787;42.022;23.078;2023-04-06T02:01:00;10.70;;;8.83;;
20014;SDS011;61787;42.022;23.078;2023-04-06T02:02:02;10.47;;;8.40;;
20014;SDS011;61787;42.022;23.078;2023-04-06T02:03:03;10.53;;;8.93;;
20014;SDS011;61787;42.022;23.078;2023-04-06T02:04:05;9.43;;;8.40;;
20014;SDS011;61787;42.022;23.078;2023-04-06T02:05:07;12.90;;;8.50;;
20014;SDS011;61787;42.022;23.078;2023-04-06T02:06:09;9.23;;;8.23;;
20014;SDS011;61787;42.022;23.078;2023-04-06T02:07:11;10.77;;;8.40;;
20014;SDS011;61787;42.022;23.078;2023-04-06T02:08:12;11.03;;;8.80;;
20014;SDS011;61787;42.022;23.078;2023-04-06T02:09:14;10.00;;;8.47;;
20014;SDS011;61787;42.022;23.078;2023-04-06T02:10:16;12.07;;;9.17;;
20014;SDS011;61787;42.022;23.078;2023-04-06T02:11:18;10.20;;;8.63;;
20014;SDS011;61787;42.022;23.078;2023-04-06T02:12:20;11.77;;;8.43;;
20014;SDS011;61787;42.022;23.078;2023-04-06T02:13:21;11.07;;;8.83;;
20014;SDS011;61787;42.022;23.078;2023-04-06T02:14:26;11.87;;;8.63;;
20014;SDS011;61787;42.022;23.078;2023-04-06T02:15:28;12.83;;;9.40;;
20014;SDS011;61787;42.022;23.078;2023-04-06T02:16:29;11.83;;;8.20;;
20014;SDS011;61787;42.022;23.078;2023-04-06T02:17:31;10.13;;;8.50;;
20014;SDS011;61787;42.022;23.078;2023-04-06T02:18:33;11.13;;;9.17;;
20014;SDS011;61787;42.022;23.078;2023-04-06T02:19:35;12.43;;;9.57;;
20014;SDS011;61787;42.022;23.078;2023-04-06T02:20:36;13.97;;;8.73;;
20014;SDS011;61787;42.022;23.078;2023-04-06T02:21:38;10.23;;;8.27;;
20014;SDS011;61787;42.022;23.078;2023-04-06T02:22:40;11.23;;;9.20;;
20014;SDS011;61787;42.022;23.078;2023-04-06T02:23:41;10.73;;;8.80;;
20014;SDS011;61787;42.022;23.078;2023-04-06T02:24:43;11.83;;;8.53;;
20014;SDS011;61787;42.022;23.078;2023-04-06T02:25:44;11.07;;;8.97;;
20014;SDS011;61787;42.022;23.078;2023-04-06T02:26:46;11.57;;;8.73;;
20014;SDS011;61787;42.022;23.078;2023-04-06T02:27:48;14.47;;;9.10;;
20014;SDS011;61787;42.022;23.078;2023-04-06T02:28:49;9.63;;;8.53;;
20014;SDS011;61787;42.022;23.078;2023-04-06T02:29:51;12.60;;;9.10;;
20014;SDS011;61787;42.022;23.078;2023-04-06T02:30:52;11.37;;;8.87;;
20014;SDS011;61787;42.022;23.078;2023-04-06T02:31:54;12.07;;;9.30;;
20014;SDS011;61787;42.022;23.078;2023-04-06T02:32:56;11.93;;;9.57;;
20014;SDS011;61787;42.022;23.078;2023-04-06T02:33:57;13.47;;;9.20;;
20014;SDS011;61787;42.022;23.078;2023-04-06T02:34:59;11.20;;;8.90;;
20014;SDS011;61787;42.022;23.078;2023-04-06T02:36:01;11.00;;;9.33;;
20014;SDS011;61787;42.022;23.078;2023-04-06T02:37:03;11.97;;;9.33;;
20014;SDS011;61787;42.022;23.078;2023-04-06T02:38:04;11.40;;;8.90;;
20014;SDS011;61787;42.022;23.078;2023-04-06T02:39:06;11.97;;;9.10;;
20014;SDS011;61787;42.022;23.078;2023-04-06T02:40:08;12.23;;;9.73;;
20014;SDS011;61787;42.022;23.078;2023-04-06T02:41:10;10.37;;;9.07;;
20014;SDS011;61787;42.022;23.078;2023-04-06T02:42:12;12.47;;;9.10;;
20014;SDS011;61787;42.022;23.078;2023-04-06T02:43:13;12.40;;;9.37;;
20014;SDS011;61787;42.022;23.078;2023-04-06T02:44:16;12.20;;;10.10;;
20014;SDS011;61787;42.022;23.078;2023-04-06T02:45:18;12.63;;;9.70;;
20014;SDS011;61787;42.022;23.078;2023-04-06T02:46:19;11.47;;;9.33;;
20014;SDS011;61787;42.022;23.078;2023-04-06T02:47:21;13.20;;;10.23;;
20014;SDS011;61787;42.022;23.078;2023-04-06T02:48:23;11.97;;;8.87;;
20014;SDS011;61787;42.022;23.078;2023-04-06T02:49:24;13.47;;;9.77;;
20014;SDS011;61787;42.022;23.078;2023-04-06T02:50:26;10.70;;;9.03;;
20014;SDS011;61787;42.022;23.078;2023-04-06T02:51:28;11.53;;;9.43;;
20014;SDS011;61787;42.022;23.078;2023-04-06T02:52:29;13.30;;;9.87;;
20014;SDS011;61787;42.022;23.078;2023-04-06T02:53:31;12.20;;;9.57;;
20014;SDS011;61787;42.022;23.078;2023-04-06T02:54:32;10.93;;;9.23;;
20014;SDS011;61787;42.022;23.078;2023-04-06T02:55:34;12.00;;;9.53;;
20014;SDS011;61787;42.022;23.078;2023-04-06T02:56:36;12.67;;;9.30;;
20014;SDS011;61787;42.022;23.078;2023-04-06T02:57:37;13.00;;;9.80;;
20014;SDS011;61787;42.022;23.078;2023-04-06T02:58:39;12.70;;;9.70;;
20014;SDS011;61787;42.022;23.078;2023-04-06T02:59:41;13.63;;;8.83;;
20014;SDS011;61787;42.022;23.078;2023-04-06T03:00:42;11.50;;;9.00;;
20014;SDS011;61787;42.022;23.078;2023-04-06T03:01:44;13.27;;;10.30;;
20014;SDS011;61787;42.022;23.078;2023-04-06T03:02:46;12.27;;;9.80;;
20014;SDS011;61787;42.022;23.078;2023-04-06T03:03:47;13.70;;;9.87;;
20014;SDS011;61787;42.022;23.078;2023-04-06T03:04:49;11.90;;;9.63;;
20014;SDS011;61787;42.022;23.078;2023-04-06T03:05:51;12.27;;;9.30;;
20014;SDS011;61787;42.022;23.078;2023-04-06T03:06:53;12.50;;;9.43;;
20014;SDS011;61787;42.022;23.078;2023-04-06T03:07:56;12.67;;;9.20;;
20014;SDS011;61787;42.022;23.078;2023-04-06T03:08:58;12.47;;;9.80;;
20014;SDS011;61787;42.022;23.078;2023-04-06T03:09:59;12.73;;;9.50;;
20014;SDS011;61787;42.022;23.078;2023-04-06T03:11:01;11.50;;;9.33;;
20014;SDS011;61787;42.022;23.078;2023-04-06T03:12:02;12.37;;;9.40;;
20014;SDS011;61787;42.022;23.078;2023-04-06T03:13:04;11.63;;;9.27;;
20014;SDS011;61787;42.022;23.078;2023-04-06T03:14:06;13.90;;;10.17;;
20014;SDS011;61787;42.022;23.078;2023-04-06T03:15:08;11.00;;;8.93;;
20014;SDS011;61787;42.022;23.078;2023-04-06T03:16:10;13.90;;;9.27;;
20014;SDS011;61787;42.022;23.078;2023-04-06T03:17:12;11.97;;;9.57;;
20014;SDS011;61787;42.022;23.078;2023-04-06T03:18:13;13.27;;;9.90;;
20014;SDS011;61787;42.022;23.078;2023-04-06T03:19:15;14.43;;;9.40;;
20014;SDS011;61787;42.022;23.078;2023-04-06T03:20:16;15.13;;;10.40;;
20014;SDS011;61787;42.022;23.078;2023-04-06T03:21:18;13.17;;;9.67;;
20014;SDS011;61787;42.022;23.078;2023-04-06T03:22:20;12.70;;;9.13;;
20014;SDS011;61787;42.022;23.078;2023-04-06T03:23:22;13.40;;;10.10;;
20014;SDS011;61787;42.022;23.078;2023-04-06T03:24:24;12.83;;;9.53;;
20014;SDS011;61787;42.022;23.078;2023-04-06T03:25:25;11.83;;;9.93;;
20014;SDS011;61787;42.022;23.078;2023-04-06T03:26:27;12.90;;;9.63;;
20014;SDS011;61787;42.022;23.078;2023-04-06T03:27:28;12.10;;;9.90;;
20014;SDS011;61787;42.022;23.078;2023-04-06T03:28:30;13.70;;;10.60;;
20014;SDS011;61787;42.022;23.078;2023-04-06T03:29:32;14.83;;;10.00;;
20014;SDS011;61787;42.022;23.078;2023-04-06T03:30:33;14.90;;;10.60;;
20014;SDS011;61787;42.022;23.078;2023-04-06T03:31:35;13.07;;;10.10;;
20014;SDS011;61787;42.022;23.078;2023-04-06T03:32:37;12.93;;;10.10;;
20014;SDS011;61787;42.022;23.078;2023-04-06T03:33:39;14.03;;;10.43;;
20014;SDS011;61787;42.022;23.078;2023-04-06T03:34:40;11.43;;;9.30;;
20014;SDS011;61787;42.022;23.078;2023-04-06T03:35:42;13.40;;;9.90;;
20014;SDS011;61787;42.022;23.078;2023-04-06T03:36:44;11.80;;;9.73;;
20014;SDS011;61787;42.022;23.078;2023-04-06T03:37:46;13.07;;;10.80;;
20014;SDS011;61787;42.022;23.078;2023-04-06T03:38:48;13.77;;;10.07;;
20014;SDS011;61787;42.022;23.078;2023-04-06T03:39:49;13.97;;;10.13;;
20014;SDS011;61787;42.022;23.078;2023-04-06T03:40:51;13.23;;;10.37;;
20014;SDS011;61787;42.022;23.078;2023-04-06T03:41:53;18.40;;;11.90;;
20014;SDS011;61787;42.022;23.078;2023-04-06T03:42:54;14.50;;;10.37;;
20014;SDS011;61787;42.022;23.078;2023-04-06T03:43:56;16.37;;;10.93;;
20014;SDS011;61787;42.022;23.078;2023-04-06T03:44:58;15.40;;;11.50;;
20014;SDS011;61787;42.022;23.078;2023-04-06T03:46:00;12.37;;;9.97;;
20014;SDS011;61787;42.022;23.078;2023-04-06T03:47:01;14.37;;;11.00;;
20014;SDS011;61787;42.022;23.078;2023-04-06T03:48:04;15.93;;;10.50;;
20014;SDS011;61787;42.022;23.078;2023-04-06T03:49:06;15.37;;;10.77;;
20014;SDS011;61787;42.022;23.078;2023-04-06T03:50:08;14.77;;;10.87;;
20014;SDS011;61787;42.022;23.078;2023-04-06T03:51:10;16.37;;;10.53;;
20014;SDS011;61787;42.022;23.078;2023-04-06T03:52:12;14.70;;;10.47;;
20014;SDS011;61787;42.022;23.078;2023-04-06T03:53:13;15.93;;;10.83;;
20014;SDS011;61787;42.022;23.078;2023-04-06T03:54:15;14.27;;;10.73;;
20014;SDS011;61787;42.022;23.078;2023-04-06T03:55:17;15.53;;;10.77;;
20014;SDS011;61787;42.022;23.078;2023-04-06T03:56:18;14.30;;;10.73;;
20014;SDS011;61787;42.022;23.078;2023-04-06T03:57:21;12.73;;;11.10;;
20014;SDS011;61787;42.022;23.078;2023-04-06T03:58:22;14.23;;;10.13;;
20014;SDS011;61787;42.022;23.078;2023-04-06T03:59:24;13.93;;;10.40;;
20014;SDS011;61787;42.022;23.078;2023-04-06T04:00:26;12.17;;;9.83;;
20014;SDS011;61787;42.022;23.078;2023-04-06T04:01:28;13.53;;;10.40;;
20014;SDS011;61787;42.022;23.078;2023-04-06T04:02:30;13.90;;;9.60;;
20014;SDS011;61787;42.022;23.078;2023-04-06T04:03:31;12.63;;;9.07;;
20014;SDS011;61787;42.022;23.078;2023-04-06T04:04:33;14.57;;;10.13;;
20014;SDS011;61787;42.022;23.078;2023-04-06T04:05:35;13.80;;;9.87;;
20014;SDS011;61787;42.022;23.078;2023-04-06T04:06:37;13.67;;;9.37;;
20014;SDS011;61787;42.022;23.078;2023-04-06T04:07:38;12.67;;;9.30;;
20014;SDS011;61787;42.022;23.078;2023-04-06T04:08:40;12.37;;;9.53;;
20014;SDS011;61787;42.022;23.078;2023-04-06T04:09:41;13.63;;;10.10;;
20014;SDS011;61787;42.022;23.078;2023-04-06T04:10:43;15.83;;;9.57;;
20014;SDS011;61787;42.022;23.078;2023-04-06T04:11:44;13.70;;;9.47;;
20014;SDS011;61787;42.022;23.078;2023-04-06T04:12:46;11.70;;;9.27;;
20014;SDS011;61787;42.022;23.078;2023-04-06T04:13:48;13.73;;;9.80;;
20014;SDS011;61787;42.022;23.078;2023-04-06T04:14:49;12.00;;;9.13;;
20014;SDS011;61787;42.022;23.078;2023-04-06T04:15:51;11.20;;;9.13;;
20014;SDS011;61787;42.022;23.078;2023-04-06T04:16:52;13.73;;;10.50;;
20014;SDS011;61787;42.022;23.078;2023-04-06T04:17:54;16.17;;;9.53;;
20014;SDS011;61787;42.022;23.078;2023-04-06T04:18:56;12.97;;;8.83;;
20014;SDS011;61787;42.022;23.078;2023-04-06T04:20:00;13.33;;;9.10;;
20014;SDS011;61787;42.022;23.078;2023-04-06T04:21:02;13.10;;;9.43;;
20014;SDS011;61787;42.022;23.078;2023-04-06T04:22:04;12.60;;;9.20;;
20014;SDS011;61787;42.022;23.078;2023-04-06T04:23:06;13.50;;;9.00;;
20014;SDS011;61787;42.022;23.078;2023-04-06T04:24:07;11.90;;;8.57;;
20014;SDS011;61787;42.022;23.078;2023-04-06T04:25:09;12.37;;;8.93;;
20014;SDS011;61787;42.022;23.078;2023-04-06T04:26:11;13.73;;;9.87;;
20014;SDS011;61787;42.022;23.078;2023-04-06T04:27:13;14.33;;;10.00;;
20014;SDS011;61787;42.022;23.078;2023-04-06T04:28:14;13.53;;;9.77;;
20014;SDS011;61787;42.022;23.078;2023-04-06T04:29:16;14.63;;;9.70;;
20014;SDS011;61787;42.022;23.078;2023-04-06T04:30:21;13.53;;;10.07;;
20014;SDS011;61787;42.022;23.078;2023-04-06T04:31:22;14.00;;;9.70;;
20014;SDS011;61787;42.022;23.078;2023-04-06T04:32:24;13.17;;;10.23;;
20014;SDS011;61787;42.022;23.078;2023-04-06T04:33:28;13.20;;;9.77;;
20014;SDS011;61787;42.022;23.078;2023-04-06T04:34:30;12.03;;;9.33;;
20014;SDS011;61787;42.022;23.078;2023-04-06T04:35:32;12.83;;;9.30;;
20014;SDS011;61787;42.022;23.078;2023-04-06T04:36:33;11.23;;;8.97;;
20014;SDS011;61787;42.022;23.078;2023-04-06T04:37:35;13.90;;;9.60;;
20014;SDS011;61787;42.022;23.078;2023-04-06T04:38:37;11.50;;;8.77;;
20014;SDS011;61787;42.022;23.078;2023-04-06T04:39:38;12.60;;;9.00;;
20014;SDS011;61787;42.022;23.078;2023-04-06T04:40:40;12.20;;;9.23;;
20014;SDS011;61787;42.022;23.078;2023-04-06T04:41:42;12.97;;;9.60;;
20014;SDS011;61787;42.022;23.078;2023-04-06T04:42:43;12.30;;;9.33;;
20014;SDS011;61787;42.022;23.078;2023-04-06T04:43:46;10.63;;;8.93;;
20014;SDS011;61787;42.022;23.078;2023-04-06T04:44:47;12.70;;;8.93;;
20014;SDS011;61787;42.022;23.078;2023-04-06T04:45:49;11.63;;;9.17;;
20014;SDS011;61787;42.022;23.078;2023-04-06T04:46:51;12.30;;;9.20;;
20014;SDS011;61787;42.022;23.078;2023-04-06T04:47:53;14.57;;;9.13;;
20014;SDS011;61787;42.022;23.078;2023-04-06T04:48:55;10.00;;;8.40;;
20014;SDS011;61787;42.022;23.078;2023-04-06T04:49:57;10.87;;;8.30;;
20014;SDS011;61787;42.022;23.078;2023-04-06T04:50:59;11.23;;;8.50;;
20014;SDS011;61787;42.022;23.078;2023-04-06T04:52:01;11.07;;;8.10;;
20014;SDS011;61787;42.022;23.078;2023-04-06T04:53:02;11.70;;;9.00;;
20014;SDS011;61787;42.022;23.078;2023-04-06T04:54:07;13.23;;;9.00;;
20014;SDS011;61787;42.022;23.078;2023-04-06T04:55:08;13.47;;;9.10;;
20014;SDS011;61787;42.022;23.078;2023-04-06T04:56:10;11.77;;;8.83;;
20014;SDS011;61787;42.022;23.078;2023-04-06T04:57:11;13.80;;;9.50;;
20014;SDS011;61787;42.022;23.078;2023-04-06T04:58:13;12.00;;;8.77;;
20014;SDS011;61787;42.022;23.078;2023-04-06T04:59:20;16.23;;;9.77;;
20014;SDS011;61787;42.022;23.078;2023-04-06T05:00:21;14.37;;;9.97;;
20014;SDS011;61787;42.022;23.078;2023-04-06T05:01:23;11.47;;;9.50;;
20014;SDS011;61787;42.022;23.078;2023-04-06T05:02:25;14.10;;;9.93;;
20014;SDS011;61787;42.022;23.078;2023-04-06T05:03:27;13.83;;;10.20;;
20014;SDS011;61787;42.022;23.078;2023-04-06T05:04:29;13.30;;;9.83;;
20014;SDS011;61787;42.022;23.078;2023-04-06T05:05:30;12.77;;;9.63;;
20014;SDS011;61787;42.022;23.078;2023-04-06T05:06:32;14.30;;;10.40;;
20014;SDS011;61787;42.022;23.078;2023-04-06T05:07:33;13.50;;;9.07;;
20014;SDS011;61787;42.022;23.078;2023-04-06T05:08:35;11.53;;;9.00;;
20014;SDS011;61787;42.022;23.078;2023-04-06T05:09:37;11.80;;;8.97;;
20014;SDS011;61787;42.022;23.078;2023-04-06T05:10:39;13.77;;;9.73;;
20014;SDS011;61787;42.022;23.078;2023-04-06T05:11:41;12.00;;;9.50;;
20014;SDS011;61787;42.022;23.078;2023-04-06T05:12:43;11.60;;;9.00;;
20014;SDS011;61787;42.022;23.078;2023-04-06T05:13:44;15.07;;;10.00;;
20014;SDS011;61787;42.022;23.078;2023-04-06T05:14:46;12.77;;;10.17;;
20014;SDS011;61787;42.022;23.078;2023-04-06T05:15:48;13.87;;;10.00;;
20014;SDS011;61787;42.022;23.078;2023-04-06T05:16:49;13.63;;;10.20;;
20014;SDS011;61787;42.022;23.078;2023-04-06T05:17:51;13.50;;;10.10;;
20014;SDS011;61787;42.022;23.078;2023-04-06T05:18:53;12.40;;;9.40;;
20014;SDS011;61787;42.022;23.078;2023-04-06T05:19:54;13.80;;;10.30;;
20014;SDS011;61787;42.022;23.078;2023-04-06T05:20:56;13.70;;;10.20;;
20014;SDS011;61787;42.022;23.078;2023-04-06T05:21:58;12.93;;;9.70;;
20014;SDS011;61787;42.022;23.078;2023-04-06T05:23:00;10.97;;;9.13;;
20014;SDS011;61787;42.022;23.078;2023-04-06T05:24:01;14.17;;;9.50;;
20014;SDS011;61787;42.022;23.078;2023-04-06T05:25:03;10.93;;;9.13;;
20014;SDS011;61787;42.022;23.078;2023-04-06T05:26:05;12.40;;;9.40;;
20014;SDS011;61787;42.022;23.078;2023-04-06T05:27:07;13.60;;;10.03;;
20014;SDS011;61787;42.022;23.078;2023-04-06T05:28:08;14.77;;;10.13;;
20014;SDS011;61787;42.022;23.078;2023-04-06T05:29:10;14.30;;;10.17;;
20014;SDS011;61787;42.022;23.078;2023-04-06T05:30:12;13.67;;;10.50;;
20014;SDS011;61787;42.022;23.078;2023-04-06T05:31:14;12.87;;;9.70;;
20014;SDS011;61787;42.022;23.078;2023-04-06T05:32:16;14.07;;;9.70;;
20014;SDS011;61787;42.022;23.078;2023-04-06T05:33:18;15.70;;;10.97;;
20014;SDS011;61787;42.022;23.078;2023-04-06T05:34:19;13.37;;;9.47;;
20014;SDS011;61787;42.022;23.078;2023-04-06T05:35:21;15.70;;;9.87;;
20014;SDS011;61787;42.022;23.078;2023-04-06T05:36:23;11.90;;;8.93;;
20014;SDS011;61787;42.022;23.078;2023-04-06T05:37:24;10.47;;;8.70;;
20014;SDS011;61787;42.022;23.078;2023-04-06T05:38:26;12.40;;;9.10;;
20014;SDS011;61787;42.022;23.078;2023-04-06T05:39:28;11.07;;;9.60;;
20014;SDS011;61787;42.022;23.078;2023-04-06T05:40:29;11.97;;;9.37;;
20014;SDS011;61787;42.022;23.078;2023-04-06T05:41:31;13.47;;;9.30;;
20014;SDS011;61787;42.022;23.078;2023-04-06T05:42:39;13.57;;;9.33;;
20014;SDS011;61787;42.022;23.078;2023-04-06T05:43:42;12.10;;;8.87;;
20014;SDS011;61787;42.022;23.078;2023-04-06T05:44:43;12.60;;;8.93;;
20014;SDS011;61787;42.022;23.078;2023-04-06T05:45:45;12.23;;;9.80;;
20014;SDS011;61787;42.022;23.078;2023-04-06T05:46:47;13.27;;;9.40;;
20014;SDS011;61787;42.022;23.078;2023-04-06T05:47:48;15.70;;;9.47;;
20014;SDS011;61787;42.022;23.078;2023-04-06T05:48:50;10.50;;;8.77;;
20014;SDS011;61787;42.022;23.078;2023-04-06T05:49:52;12.73;;;9.40;;
20014;SDS011;61787;42.022;23.078;2023-04-06T05:50:54;12.83;;;9.43;;
20014;SDS011;61787;42.022;23.078;2023-04-06T05:51:55;11.53;;;8.43;;
20014;SDS011;61787;42.022;23.078;2023-04-06T05:52:57;10.63;;;8.03;;
20014;SDS011;61787;42.022;23.078;2023-04-06T05:53:59;9.60;;;7.70;;
20014;SDS011;61787;42.022;23.078;2023-04-06T05:55:00;12.60;;;8.57;;
20014;SDS011;61787;42.022;23.078;2023-04-06T05:56:02;10.67;;;8.00;;
20014;SDS011;61787;42.022;23.078;2023-04-06T05:57:04;12.00;;;9.07;;
20014;SDS011;61787;42.022;23.078;2023-04-06T05:58:06;11.53;;;9.20;;
20014;SDS011;61787;42.022;23.078;2023-04-06T05:59:08;10.70;;;8.00;;
20014;SDS011;61787;42.022;23.078;2023-04-06T06:00:10;10.20;;;8.20;;
20014;SDS011;61787;42.022;23.078;2023-04-06T06:01:12;11.33;;;8.40;;